sensor_id;sensor_type;location;lat;lon;timestamp;P1;durP1;ratioP1;P2;durP2;ratioP2
813;SDS011;389;48.710;9.392;2023-09-18T00:00:25;5.23;;;4.00;;
813;SDS011;389;48.710;9.392;2023-09-18T00:02:51;4.50;;;4.10;;
813;SDS011;389;48.710;9.392;2023-09-18T00:05:16;5.77;;;4.73;;
813;SDS011;389;48.710;9.392;2023-09-18T00:07:42;6.03;;;5.00;;
813;SDS011;389;48.710;9.392;2023-09-18T00:10:09;6.17;;;4.47;;
813;SDS011;389;48.710;9.392;2023-09-18T00:12:35;6.40;;;5.17;;
813;SDS011;389;48.710;9.392;2023-09-18T00:15:01;5.10;;;4.60;;
813;SDS011;389;48.710;9.392;2023-09-18T00:17:27;7.80;;;4.50;;
813;SDS011;389;48.710;9.392;2023-09-18T00:19:53;5.43;;;4.77;;
813;SDS011;389;48.710;9.392;2023-09-18T00:22:19;5.73;;;4.80;;
813;SDS011;389;48.710;9.392;2023-09-18T00:24:45;5.67;;;4.57;;
813;SDS011;389;48.710;9.392;2023-09-18T00:27:11;6.83;;;5.03;;
813;SDS011;389;48.710;9.392;2023-09-18T00:29:38;5.27;;;4.70;;
813;SDS011;389;48.710;9.392;2023-09-18T00:32:04;6.23;;;5.07;;
813;SDS011;389;48.710;9.392;2023-09-18T00:34:31;6.10;;;4.70;;
813;SDS011;389;48.710;9.392;2023-09-18T00:36:59;7.13;;;5.13;;
813;SDS011;389;48.710;9.392;2023-09-18T00:39:25;5.43;;;4.67;;
813;SDS011;389;48.710;9.392;2023-09-18T00:41:51;5.07;;;4.57;;
813;SDS011;389;48.710;9.392;2023-09-18T00:44:19;4.97;;;4.57;;
813;SDS011;389;48.710;9.392;2023-09-18T00:46:48;5.53;;;5.00;;
813;SDS011;389;48.710;9.392;2023-09-18T00:49:14;5.03;;;4.53;;
813;SDS011;389;48.710;9.392;2023-09-18T00:51:42;6.50;;;5.30;;
813;SDS011;389;48.710;9.392;2023-09-18T00:54:08;5.77;;;5.00;;
813;SDS011;389;48.710;9.392;2023-09-18T00:56:35;5.17;;;4.60;;
813;SDS011;389;48.710;9.392;2023-09-18T00:59:00;5.20;;;4.50;;
813;SDS011;389;48.710;9.392;2023-09-18T01:01:28;5.20;;;4.60;;
813;SDS011;389;48.710;9.392;2023-09-18T01:03:55;5.10;;;4.60;;
813;SDS011;389;48.710;9.392;2023-09-18T01:06:21;6.40;;;5.03;;
813;SDS011;389;48.710;9.392;2023-09-18T01:08:50;7.57;;;5.70;;
813;SDS011;389;48.710;9.392;2023-09-18T01:14:20;5.57;;;4.63;;
813;SDS011;389;48.710;9.392;2023-09-18T01:16:53;6.37;;;4.80;;
813;SDS011;389;48.710;9.392;2023-09-18T01:19:39;5.17;;;4.70;;
813;SDS011;389;48.710;9.392;2023-09-18T01:22:06;5.73;;;5.13;;
813;SDS011;389;48.710;9.392;2023-09-18T01:24:33;5.93;;;5.33;;
813;SDS011;389;48.710;9.392;2023-09-18T01:27:00;5.23;;;4.73;;
813;SDS011;389;48.710;9.392;2023-09-18T01:29:26;6.50;;;5.50;;
813;SDS011;389;48.710;9.392;2023-09-18T01:31:51;6.07;;;4.90;;
813;SDS011;389;48.710;9.392;2023-09-18T01:34:18;8.53;;;5.43;;
813;SDS011;389;48.710;9.392;2023-09-18T01:36:46;8.30;;;5.27;;
813;SDS011;389;48.710;9.392;2023-09-18T01:39:12;6.30;;;5.30;;
813;SDS011;389;48.710;9.392;2023-09-18T01:41:40;8.60;;;5.20;;
813;SDS011;389;48.710;9.392;2023-09-18T01:44:06;9.20;;;5.10;;
813;SDS011;389;48.710;9.392;2023-09-18T01:46:32;5.23;;;4.73;;
813;SDS011;389;48.710;9.392;2023-09-18T01:49:01;6.70;;;4.70;;
813;SDS011;389;48.710;9.392;2023-09-18T01:51:28;5.37;;;4.57;;
813;SDS011;389;48.710;9.392;2023-09-18T01:53:54;7.43;;;5.60;;
813;SDS011;389;48.710;9.392;2023-09-18T01:56:20;7.80;;;5.40;;
813;SDS011;389;48.710;9.392;2023-09-18T01:58:46;5.47;;;4.90;;
813;SDS011;389;48.710;9.392;2023-09-18T02:01:12;6.50;;;5.20;;
813;SDS011;389;48.710;9.392;2023-09-18T02:03:37;8.30;;;5.57;;
813;SDS011;389;48.710;9.392;2023-09-18T02:06:07;8.63;;;5.30;;
813;SDS011;389;48.710;9.392;2023-09-18T02:08:33;5.63;;;5.03;;
813;SDS011;389;48.710;9.392;2023-09-18T02:10:59;6.90;;;5.00;;
813;SDS011;389;48.710;9.392;2023-09-18T02:13:25;7.13;;;6.03;;
813;SDS011;389;48.710;9.392;2023-09-18T02:15:50;8.93;;;6.20;;
813;SDS011;389;48.710;9.392;2023-09-18T02:18:16;7.07;;;6.37;;
813;SDS011;389;48.710;9.392;2023-09-18T02:20:42;7.53;;;6.47;;
813;SDS011;389;48.710;9.392;2023-09-18T02:23:12;12.10;;;7.00;;
813;SDS011;389;48.710;9.392;2023-09-18T02:25:38;12.20;;;7.23;;
813;SDS011;389;48.710;9.392;2023-09-18T02:28:05;10.23;;;7.10;;
813;SDS011;389;48.710;9.392;2023-09-18T02:30:31;6.70;;;5.83;;
813;SDS011;389;48.710;9.392;2023-09-18T02:32:57;6.73;;;5.97;;
813;SDS011;389;48.710;9.392;2023-09-18T02:35:22;8.43;;;5.30;;
813;SDS011;389;48.710;9.392;2023-09-18T02:37:48;4.90;;;4.20;;
813;SDS011;389;48.710;9.392;2023-09-18T02:40:13;5.70;;;4.60;;
813;SDS011;389;48.710;9.392;2023-09-18T02:42:39;7.17;;;4.80;;
813;SDS011;389;48.710;9.392;2023-09-18T02:45:05;6.43;;;4.43;;
813;SDS011;389;48.710;9.392;2023-09-18T02:47:31;9.63;;;4.07;;
813;SDS011;389;48.710;9.392;2023-09-18T02:49:58;4.80;;;4.37;;
813;SDS011;389;48.710;9.392;2023-09-18T02:52:24;6.20;;;4.60;;
813;SDS011;389;48.710;9.392;2023-09-18T02:54:50;5.93;;;4.97;;
813;SDS011;389;48.710;9.392;2023-09-18T02:57:15;6.57;;;4.80;;
813;SDS011;389;48.710;9.392;2023-09-18T02:59:41;5.67;;;4.10;;
813;SDS011;389;48.710;9.392;2023-09-18T03:02:06;7.47;;;5.27;;
813;SDS011;389;48.710;9.392;2023-09-18T03:04:32;5.67;;;4.93;;
813;SDS011;389;48.710;9.392;2023-09-18T03:06:57;5.60;;;4.57;;
813;SDS011;389;48.710;9.392;2023-09-18T03:09:23;6.87;;;4.33;;
813;SDS011;389;48.710;9.392;2023-09-18T03:11:48;6.33;;;5.00;;
813;SDS011;389;48.710;9.392;2023-09-18T03:14:14;6.00;;;4.70;;
813;SDS011;389;48.710;9.392;2023-09-18T03:16:40;8.10;;;5.37;;
813;SDS011;389;48.710;9.392;2023-09-18T03:19:05;6.40;;;5.50;;
813;SDS011;389;48.710;9.392;2023-09-18T03:21:31;16.47;;;5.43;;
813;SDS011;389;48.710;9.392;2023-09-18T03:23:58;9.90;;;5.70;;
813;SDS011;389;48.710;9.392;2023-09-18T03:26:24;7.93;;;5.57;;
813;SDS011;389;48.710;9.392;2023-09-18T03:28:50;6.93;;;5.50;;
813;SDS011;389;48.710;9.392;2023-09-18T03:31:15;8.50;;;5.80;;
813;SDS011;389;48.710;9.392;2023-09-18T03:33:41;6.63;;;4.70;;
813;SDS011;389;48.710;9.392;2023-09-18T03:36:06;6.70;;;5.03;;
813;SDS011;389;48.710;9.392;2023-09-18T03:38:33;5.53;;;4.87;;
813;SDS011;389;48.710;9.392;2023-09-18T03:41:00;8.57;;;5.67;;
813;SDS011;389;48.710;9.392;2023-09-18T03:43:26;5.87;;;5.07;;
813;SDS011;389;48.710;9.392;2023-09-18T03:45:51;5.57;;;4.93;;
813;SDS011;389;48.710;9.392;2023-09-18T03:48:17;9.77;;;5.47;;
813;SDS011;389;48.710;9.392;2023-09-18T03:50:43;6.27;;;5.10;;
813;SDS011;389;48.710;9.392;2023-09-18T03:53:09;6.63;;;5.17;;
813;SDS011;389;48.710;9.392;2023-09-18T03:55:35;6.33;;;4.80;;
813;SDS011;389;48.710;9.392;2023-09-18T03:58:00;5.77;;;5.20;;
813;SDS011;389;48.710;9.392;2023-09-18T04:00:26;5.77;;;4.93;;
813;SDS011;389;48.710;9.392;2023-09-18T04:02:51;8.30;;;5.90;;
813;SDS011;389;48.710;9.392;2023-09-18T04:05:17;6.83;;;5.33;;
813;SDS011;389;48.710;9.392;2023-09-18T04:07:43;10.30;;;5.30;;
813;SDS011;389;48.710;9.392;2023-09-18T04:10:11;7.70;;;4.10;;
813;SDS011;389;48.710;9.392;2023-09-18T04:12:43;9.13;;;4.87;;
813;SDS011;389;48.710;9.392;2023-09-18T04:15:11;6.93;;;4.83;;
813;SDS011;389;48.710;9.392;2023-09-18T04:17:40;7.47;;;5.60;;
813;SDS011;389;48.710;9.392;2023-09-18T04:20:06;8.53;;;5.60;;
813;SDS011;389;48.710;9.392;2023-09-18T04:22:31;8.57;;;5.23;;
813;SDS011;389;48.710;9.392;2023-09-18T04:24:57;7.20;;;4.83;;
813;SDS011;389;48.710;9.392;2023-09-18T04:27:23;6.80;;;5.23;;
813;SDS011;389;48.710;9.392;2023-09-18T04:29:48;6.27;;;5.20;;
813;SDS011;389;48.710;9.392;2023-09-18T04:32:14;8.77;;;5.67;;
813;SDS011;389;48.710;9.392;2023-09-18T04:34:40;7.80;;;5.20;;
813;SDS011;389;48.710;9.392;2023-09-18T04:37:07;9.53;;;4.40;;
813;SDS011;389;48.710;9.392;2023-09-18T04:39:33;7.53;;;5.00;;
813;SDS011;389;48.710;9.392;2023-09-18T04:42:00;8.17;;;4.53;;
813;SDS011;389;48.710;9.392;2023-09-18T04:44:28;7.47;;;4.80;;
813;SDS011;389;48.710;9.392;2023-09-18T04:46:54;9.10;;;5.10;;
813;SDS011;389;48.710;9.392;2023-09-18T04:49:20;6.90;;;4.53;;
813;SDS011;389;48.710;9.392;2023-09-18T04:51:45;6.13;;;3.80;;
813;SDS011;389;48.710;9.392;2023-09-18T04:54:11;11.83;;;4.37;;
813;SDS011;389;48.710;9.392;2023-09-18T04:56:37;4.50;;;3.90;;
813;SDS011;389;48.710;9.392;2023-09-18T04:59:02;6.10;;;3.50;;
813;SDS011;389;48.710;9.392;2023-09-18T05:01:28;4.37;;;3.97;;
813;SDS011;389;48.710;9.392;2023-09-18T05:03:55;4.67;;;3.67;;
813;SDS011;389;48.710;9.392;2023-09-18T05:06:20;5.70;;;3.40;;
813;SDS011;389;48.710;9.392;2023-09-18T05:08:46;6.27;;;4.30;;
813;SDS011;389;48.710;9.392;2023-09-18T05:11:12;6.63;;;3.73;;
813;SDS011;389;48.710;9.392;2023-09-18T05:13:37;7.00;;;3.73;;
813;SDS011;389;48.710;9.392;2023-09-18T05:16:03;5.03;;;3.70;;
813;SDS011;389;48.710;9.392;2023-09-18T05:18:28;6.93;;;3.60;;
813;SDS011;389;48.710;9.392;2023-09-18T05:20:54;7.47;;;4.37;;
813;SDS011;389;48.710;9.392;2023-09-18T05:23:20;10.07;;;4.47;;
813;SDS011;389;48.710;9.392;2023-09-18T05:25:45;10.83;;;5.00;;
813;SDS011;389;48.710;9.392;2023-09-18T05:28:11;5.80;;;4.80;;
813;SDS011;389;48.710;9.392;2023-09-18T05:30:36;6.67;;;4.37;;
813;SDS011;389;48.710;9.392;2023-09-18T05:33:04;8.47;;;4.97;;
813;SDS011;389;48.710;9.392;2023-09-18T05:35:40;5.27;;;4.10;;
813;SDS011;389;48.710;9.392;2023-09-18T05:38:07;7.97;;;4.70;;
813;SDS011;389;48.710;9.392;2023-09-18T05:40:33;5.90;;;4.73;;
813;SDS011;389;48.710;9.392;2023-09-18T05:42:59;9.40;;;5.00;;
813;SDS011;389;48.710;9.392;2023-09-18T05:45:25;6.60;;;4.23;;
813;SDS011;389;48.710;9.392;2023-09-18T05:47:52;4.73;;;4.23;;
813;SDS011;389;48.710;9.392;2023-09-18T05:50:18;9.70;;;4.27;;
813;SDS011;389;48.710;9.392;2023-09-18T05:52:46;5.60;;;4.43;;
813;SDS011;389;48.710;9.392;2023-09-18T05:55:14;5.20;;;4.30;;
813;SDS011;389;48.710;9.392;2023-09-18T05:57:40;5.93;;;4.63;;
813;SDS011;389;48.710;9.392;2023-09-18T06:00:06;8.43;;;4.57;;
813;SDS011;389;48.710;9.392;2023-09-18T06:02:32;5.63;;;3.90;;
813;SDS011;389;48.710;9.392;2023-09-18T06:04:58;6.20;;;4.20;;
813;SDS011;389;48.710;9.392;2023-09-18T06:07:28;6.13;;;4.47;;
813;SDS011;389;48.710;9.392;2023-09-18T06:09:55;8.70;;;4.20;;
813;SDS011;389;48.710;9.392;2023-09-18T06:12:22;6.63;;;4.30;;
813;SDS011;389;48.710;9.392;2023-09-18T06:14:48;7.40;;;4.57;;
813;SDS011;389;48.710;9.392;2023-09-18T06:17:14;7.10;;;4.43;;
813;SDS011;389;48.710;9.392;2023-09-18T06:19:41;9.20;;;4.93;;
813;SDS011;389;48.710;9.392;2023-09-18T06:22:07;9.83;;;4.77;;
813;SDS011;389;48.710;9.392;2023-09-18T06:24:36;5.33;;;3.73;;
813;SDS011;389;48.710;9.392;2023-09-18T06:27:02;6.17;;;4.57;;
813;SDS011;389;48.710;9.392;2023-09-18T06:29:34;9.53;;;4.03;;
813;SDS011;389;48.710;9.392;2023-09-18T06:32:00;7.13;;;3.90;;
813;SDS011;389;48.710;9.392;2023-09-18T06:34:26;6.70;;;4.60;;
813;SDS011;389;48.710;9.392;2023-09-18T06:36:53;7.03;;;3.53;;
813;SDS011;389;48.710;9.392;2023-09-18T06:39:22;8.30;;;4.10;;
813;SDS011;389;48.710;9.392;2023-09-18T06:41:49;4.83;;;3.40;;
813;SDS011;389;48.710;9.392;2023-09-18T06:44:15;6.47;;;3.67;;
813;SDS011;389;48.710;9.392;2023-09-18T06:46:40;9.50;;;3.73;;
813;SDS011;389;48.710;9.392;2023-09-18T06:49:06;8.40;;;3.60;;
813;SDS011;389;48.710;9.392;2023-09-18T06:51:32;4.80;;;3.73;;
813;SDS011;389;48.710;9.392;2023-09-18T06:53:58;5.07;;;3.70;;
813;SDS011;389;48.710;9.392;2023-09-18T06:56:26;7.87;;;4.00;;
813;SDS011;389;48.710;9.392;2023-09-18T06:58:52;10.17;;;3.63;;
813;SDS011;389;48.710;9.392;2023-09-18T07:01:20;7.90;;;3.80;;
813;SDS011;389;48.710;9.392;2023-09-18T07:03:46;5.30;;;3.90;;
813;SDS011;389;48.710;9.392;2023-09-18T07:06:15;7.40;;;3.90;;
813;SDS011;389;48.710;9.392;2023-09-18T07:08:43;7.80;;;3.60;;
813;SDS011;389;48.710;9.392;2023-09-18T07:11:09;6.93;;;4.00;;
813;SDS011;389;48.710;9.392;2023-09-18T07:13:34;4.90;;;3.40;;
813;SDS011;389;48.710;9.392;2023-09-18T07:16:00;5.47;;;3.03;;
813;SDS011;389;48.710;9.392;2023-09-18T07:18:26;8.63;;;3.30;;
813;SDS011;389;48.710;9.392;2023-09-18T07:20:51;5.13;;;3.07;;
813;SDS011;389;48.710;9.392;2023-09-18T07:23:17;7.80;;;2.40;;
813;SDS011;389;48.710;9.392;2023-09-18T07:25:43;8.00;;;2.43;;
813;SDS011;389;48.710;9.392;2023-09-18T07:28:09;7.57;;;3.23;;
813;SDS011;389;48.710;9.392;2023-09-18T07:30:40;7.23;;;2.63;;
813;SDS011;389;48.710;9.392;2023-09-18T07:33:06;6.93;;;2.23;;
813;SDS011;389;48.710;9.392;2023-09-18T07:35:32;4.90;;;1.83;;
813;SDS011;389;48.710;9.392;2023-09-18T07:37:57;4.63;;;2.40;;
813;SDS011;389;48.710;9.392;2023-09-18T07:40:23;5.10;;;2.70;;
813;SDS011;389;48.710;9.392;2023-09-18T07:42:48;4.70;;;2.43;;
813;SDS011;389;48.710;9.392;2023-09-18T07:45:14;5.23;;;2.50;;
813;SDS011;389;48.710;9.392;2023-09-18T07:47:40;6.87;;;2.77;;
813;SDS011;389;48.710;9.392;2023-09-18T07:50:05;7.07;;;2.20;;
813;SDS011;389;48.710;9.392;2023-09-18T07:52:31;5.23;;;2.23;;
813;SDS011;389;48.710;9.392;2023-09-18T07:54:57;5.57;;;1.80;;
813;SDS011;389;48.710;9.392;2023-09-18T07:57:23;3.90;;;1.80;;
813;SDS011;389;48.710;9.392;2023-09-18T07:59:49;2.30;;;1.63;;
813;SDS011;389;48.710;9.392;2023-09-18T08:02:15;5.03;;;1.90;;
813;SDS011;389;48.710;9.392;2023-09-18T08:04:42;2.43;;;1.70;;
813;SDS011;389;48.710;9.392;2023-09-18T08:07:08;6.50;;;1.73;;
813;SDS011;389;48.710;9.392;2023-09-18T08:09:33;5.40;;;1.70;;
813;SDS011;389;48.710;9.392;2023-09-18T08:12:01;3.73;;;2.23;;
813;SDS011;389;48.710;9.392;2023-09-18T08:14:30;4.30;;;1.63;;
813;SDS011;389;48.710;9.392;2023-09-18T08:17:00;4.67;;;1.53;;
813;SDS011;389;48.710;9.392;2023-09-18T08:19:27;6.23;;;1.93;;
813;SDS011;389;48.710;9.392;2023-09-18T08:21:53;4.60;;;1.70;;
813;SDS011;389;48.710;9.392;2023-09-18T08:24:21;4.53;;;1.20;;
813;SDS011;389;48.710;9.392;2023-09-18T08:26:47;3.47;;;1.30;;
813;SDS011;389;48.710;9.392;2023-09-18T08:29:12;2.43;;;1.30;;
813;SDS011;389;48.710;9.392;2023-09-18T08:31:38;3.30;;;1.73;;
813;SDS011;389;48.710;9.392;2023-09-18T08:34:04;3.27;;;1.33;;
813;SDS011;389;48.710;9.392;2023-09-18T08:36:29;5.53;;;1.77;;
813;SDS011;389;48.710;9.392;2023-09-18T08:38:55;2.80;;;1.67;;
813;SDS011;389;48.710;9.392;2023-09-18T08:41:21;5.67;;;1.57;;
813;SDS011;389;48.710;9.392;2023-09-18T08:43:52;1.10;;;1.10;;
813;SDS011;389;48.710;9.392;2023-09-18T08:46:25;2.93;;;1.60;;
813;SDS011;389;48.710;9.392;2023-09-18T08:48:50;3.80;;;1.40;;
813;SDS011;389;48.710;9.392;2023-09-18T08:51:18;4.87;;;1.70;;
813;SDS011;389;48.710;9.392;2023-09-18T08:53:44;5.60;;;1.27;;
813;SDS011;389;48.710;9.392;2023-09-18T08:56:10;2.03;;;1.40;;
813;SDS011;389;48.710;9.392;2023-09-18T08:58:38;1.40;;;1.30;;
813;SDS011;389;48.710;9.392;2023-09-18T09:01:07;1.50;;;1.20;;
813;SDS011;389;48.710;9.392;2023-09-18T09:03:37;1.97;;;1.17;;
813;SDS011;389;48.710;9.392;2023-09-18T09:06:03;3.00;;;1.20;;
813;SDS011;389;48.710;9.392;2023-09-18T09:08:29;1.40;;;1.20;;
813;SDS011;389;48.710;9.392;2023-09-18T09:10:55;1.43;;;1.20;;
813;SDS011;389;48.710;9.392;2023-09-18T09:13:23;2.50;;;1.37;;
813;SDS011;389;48.710;9.392;2023-09-18T09:15:51;2.63;;;1.27;;
813;SDS011;389;48.710;9.392;2023-09-18T09:18:21;4.53;;;1.20;;
813;SDS011;389;48.710;9.392;2023-09-18T09:20:55;3.73;;;1.40;;
813;SDS011;389;48.710;9.392;2023-09-18T09:23:25;3.10;;;1.33;;
813;SDS011;389;48.710;9.392;2023-09-18T09:25:54;2.00;;;1.13;;
813;SDS011;389;48.710;9.392;2023-09-18T09:28:37;4.13;;;1.43;;
813;SDS011;389;48.710;9.392;2023-09-18T09:31:02;1.60;;;1.20;;
813;SDS011;389;48.710;9.392;2023-09-18T09:33:29;8.73;;;1.33;;
813;SDS011;389;48.710;9.392;2023-09-18T09:35:55;5.30;;;1.60;;
813;SDS011;389;48.710;9.392;2023-09-18T09:38:22;2.73;;;1.10;;
813;SDS011;389;48.710;9.392;2023-09-18T09:40:58;3.47;;;1.40;;
813;SDS011;389;48.710;9.392;2023-09-18T09:43:28;2.47;;;1.03;;
813;SDS011;389;48.710;9.392;2023-09-18T09:46:05;3.50;;;1.30;;
813;SDS011;389;48.710;9.392;2023-09-18T09:48:31;3.00;;;1.57;;
813;SDS011;389;48.710;9.392;2023-09-18T09:50:58;2.37;;;1.43;;
813;SDS011;389;48.710;9.392;2023-09-18T09:56:12;1.33;;;1.20;;
813;SDS011;389;48.710;9.392;2023-09-18T09:58:37;4.07;;;1.40;;
813;SDS011;389;48.710;9.392;2023-09-18T10:01:06;3.70;;;1.77;;
813;SDS011;389;48.710;9.392;2023-09-18T10:03:36;2.30;;;1.33;;
813;SDS011;389;48.710;9.392;2023-09-18T10:06:04;2.60;;;1.30;;
813;SDS011;389;48.710;9.392;2023-09-18T10:08:30;5.43;;;1.47;;
813;SDS011;389;48.710;9.392;2023-09-18T10:11:06;3.10;;;1.10;;
813;SDS011;389;48.710;9.392;2023-09-18T10:16:12;2.33;;;1.57;;
813;SDS011;389;48.710;9.392;2023-09-18T10:24:34;2.97;;;1.57;;
813;SDS011;389;48.710;9.392;2023-09-18T10:27:06;1.87;;;1.37;;
813;SDS011;389;48.710;9.392;2023-09-18T10:29:34;2.23;;;1.30;;
813;SDS011;389;48.710;9.392;2023-09-18T10:32:06;4.33;;;1.50;;
813;SDS011;389;48.710;9.392;2023-09-18T10:34:33;3.27;;;1.37;;
813;SDS011;389;48.710;9.392;2023-09-18T10:36:59;2.00;;;1.70;;
813;SDS011;389;48.710;9.392;2023-09-18T10:39:26;1.57;;;1.47;;
813;SDS011;389;48.710;9.392;2023-09-18T10:41:55;4.47;;;1.70;;
813;SDS011;389;48.710;9.392;2023-09-18T10:44:26;1.67;;;1.30;;
813;SDS011;389;48.710;9.392;2023-09-18T10:46:53;4.10;;;1.60;;
813;SDS011;389;48.710;9.392;2023-09-18T10:49:20;3.83;;;1.50;;
813;SDS011;389;48.710;9.392;2023-09-18T10:51:47;1.63;;;1.50;;
813;SDS011;389;48.710;9.392;2023-09-18T10:54:17;5.50;;;1.50;;
813;SDS011;389;48.710;9.392;2023-09-18T10:56:45;3.93;;;1.60;;
813;SDS011;389;48.710;9.392;2023-09-18T10:59:13;6.30;;;1.63;;
813;SDS011;389;48.710;9.392;2023-09-18T11:01:39;2.93;;;2.00;;
813;SDS011;389;48.710;9.392;2023-09-18T11:04:06;4.50;;;1.73;;
813;SDS011;389;48.710;9.392;2023-09-18T11:09:21;2.40;;;1.60;;
813;SDS011;389;48.710;9.392;2023-09-18T11:12:08;1.80;;;1.60;;
813;SDS011;389;48.710;9.392;2023-09-18T11:17:33;3.00;;;1.30;;
813;SDS011;389;48.710;9.392;2023-09-18T11:20:17;1.60;;;1.40;;
813;SDS011;389;48.710;9.392;2023-09-18T11:28:14;2.60;;;1.57;;
813;SDS011;389;48.710;9.392;2023-09-18T11:30:50;4.27;;;1.70;;
813;SDS011;389;48.710;9.392;2023-09-18T11:33:32;3.47;;;1.70;;
813;SDS011;389;48.710;9.392;2023-09-18T11:36:08;4.70;;;1.90;;
813;SDS011;389;48.710;9.392;2023-09-18T11:38:59;7.70;;;1.87;;
813;SDS011;389;48.710;9.392;2023-09-18T11:41:32;4.40;;;2.57;;
813;SDS011;389;48.710;9.392;2023-09-18T11:46:45;4.10;;;1.90;;
813;SDS011;389;48.710;9.392;2023-09-18T11:49:12;7.20;;;2.10;;
813;SDS011;389;48.710;9.392;2023-09-18T11:51:38;5.37;;;1.80;;
813;SDS011;389;48.710;9.392;2023-09-18T11:54:05;2.57;;;1.47;;
813;SDS011;389;48.710;9.392;2023-09-18T11:56:32;1.97;;;1.53;;
813;SDS011;389;48.710;9.392;2023-09-18T11:58:58;1.40;;;1.20;;
813;SDS011;389;48.710;9.392;2023-09-18T12:01:24;2.90;;;1.63;;
813;SDS011;389;48.710;9.392;2023-09-18T12:03:55;4.00;;;1.50;;
813;SDS011;389;48.710;9.392;2023-09-18T12:06:25;3.80;;;1.10;;
813;SDS011;389;48.710;9.392;2023-09-18T12:08:51;1.57;;;1.47;;
813;SDS011;389;48.710;9.392;2023-09-18T12:11:17;1.73;;;1.23;;
813;SDS011;389;48.710;9.392;2023-09-18T12:13:45;2.03;;;1.30;;
813;SDS011;389;48.710;9.392;2023-09-18T12:16:12;1.37;;;1.27;;
813;SDS011;389;48.710;9.392;2023-09-18T12:18:44;2.77;;;1.40;;
813;SDS011;389;48.710;9.392;2023-09-18T12:21:12;2.60;;;1.20;;
813;SDS011;389;48.710;9.392;2023-09-18T12:23:39;1.87;;;1.20;;
813;SDS011;389;48.710;9.392;2023-09-18T12:26:05;1.47;;;1.00;;
813;SDS011;389;48.710;9.392;2023-09-18T12:28:37;2.57;;;1.27;;
813;SDS011;389;48.710;9.392;2023-09-18T12:31:03;2.43;;;1.40;;
813;SDS011;389;48.710;9.392;2023-09-18T12:33:35;3.13;;;1.20;;
813;SDS011;389;48.710;9.392;2023-09-18T12:36:02;1.87;;;1.27;;
813;SDS011;389;48.710;9.392;2023-09-18T12:38:29;2.03;;;1.53;;
813;SDS011;389;48.710;9.392;2023-09-18T12:40:56;2.47;;;1.43;;
813;SDS011;389;48.710;9.392;2023-09-18T12:43:28;5.97;;;1.60;;
813;SDS011;389;48.710;9.392;2023-09-18T12:45:56;2.67;;;1.70;;
813;SDS011;389;48.710;9.392;2023-09-18T12:48:21;1.80;;;1.13;;
813;SDS011;389;48.710;9.392;2023-09-18T12:50:51;1.90;;;1.17;;
813;SDS011;389;48.710;9.392;2023-09-18T12:53:21;3.00;;;1.33;;
813;SDS011;389;48.710;9.392;2023-09-18T12:55:47;1.60;;;0.93;;
813;SDS011;389;48.710;9.392;2023-09-18T12:58:18;2.50;;;1.10;;
813;SDS011;389;48.710;9.392;2023-09-18T13:00:49;1.10;;;1.00;;
813;SDS011;389;48.710;9.392;2023-09-18T13:03:15;3.87;;;1.30;;
813;SDS011;389;48.710;9.392;2023-09-18T13:05:41;2.60;;;0.93;;
813;SDS011;389;48.710;9.392;2023-09-18T13:08:06;2.30;;;1.27;;
813;SDS011;389;48.710;9.392;2023-09-18T13:10:40;2.00;;;1.20;;
813;SDS011;389;48.710;9.392;2023-09-18T13:13:21;1.87;;;1.10;;
813;SDS011;389;48.710;9.392;2023-09-18T13:15:48;2.60;;;0.97;;
813;SDS011;389;48.710;9.392;2023-09-18T13:18:15;1.20;;;1.10;;
813;SDS011;389;48.710;9.392;2023-09-18T13:20:41;1.83;;;0.93;;
813;SDS011;389;48.710;9.392;2023-09-18T13:23:07;2.70;;;1.80;;
813;SDS011;389;48.710;9.392;2023-09-18T13:25:36;2.10;;;1.40;;
813;SDS011;389;48.710;9.392;2023-09-18T13:28:05;1.83;;;1.17;;
813;SDS011;389;48.710;9.392;2023-09-18T13:30:33;2.07;;;1.00;;
813;SDS011;389;48.710;9.392;2023-09-18T13:33:02;1.27;;;1.00;;
813;SDS011;389;48.710;9.392;2023-09-18T13:35:29;1.40;;;1.20;;
813;SDS011;389;48.710;9.392;2023-09-18T13:37:55;1.27;;;1.00;;
813;SDS011;389;48.710;9.392;2023-09-18T13:40:21;1.17;;;1.07;;
813;SDS011;389;48.710;9.392;2023-09-18T13:42:47;3.33;;;1.10;;
813;SDS011;389;48.710;9.392;2023-09-18T13:45:14;1.20;;;1.10;;
813;SDS011;389;48.710;9.392;2023-09-18T13:47:41;1.17;;;1.13;;
813;SDS011;389;48.710;9.392;2023-09-18T13:50:07;1.50;;;1.20;;
813;SDS011;389;48.710;9.392;2023-09-18T13:52:35;1.07;;;0.97;;
813;SDS011;389;48.710;9.392;2023-09-18T13:55:04;1.53;;;1.13;;
813;SDS011;389;48.710;9.392;2023-09-18T13:57:31;2.60;;;1.23;;
813;SDS011;389;48.710;9.392;2023-09-18T13:59:57;2.93;;;1.10;;
813;SDS011;389;48.710;9.392;2023-09-18T14:02:22;1.83;;;1.00;;
813;SDS011;389;48.710;9.392;2023-09-18T14:04:54;1.80;;;1.40;;
813;SDS011;389;48.710;9.392;2023-09-18T14:07:19;1.20;;;1.13;;
813;SDS011;389;48.710;9.392;2023-09-18T14:09:45;2.20;;;1.40;;
813;SDS011;389;48.710;9.392;2023-09-18T14:12:11;3.00;;;1.37;;
813;SDS011;389;48.710;9.392;2023-09-18T14:14:37;1.70;;;1.20;;
813;SDS011;389;48.710;9.392;2023-09-18T14:17:05;2.60;;;1.53;;
813;SDS011;389;48.710;9.392;2023-09-18T14:19:30;1.37;;;1.27;;
813;SDS011;389;48.710;9.392;2023-09-18T14:21:56;1.83;;;1.57;;
813;SDS011;389;48.710;9.392;2023-09-18T14:24:22;1.90;;;1.00;;
813;SDS011;389;48.710;9.392;2023-09-18T14:26:51;2.47;;;1.47;;
813;SDS011;389;48.710;9.392;2023-09-18T14:29:17;4.40;;;1.47;;
813;SDS011;389;48.710;9.392;2023-09-18T14:31:43;1.30;;;1.20;;
813;SDS011;389;48.710;9.392;2023-09-18T14:34:08;1.87;;;1.40;;
813;SDS011;389;48.710;9.392;2023-09-18T14:36:34;1.93;;;1.00;;
813;SDS011;389;48.710;9.392;2023-09-18T14:39:00;1.20;;;1.10;;
813;SDS011;389;48.710;9.392;2023-09-18T14:41:27;1.40;;;1.30;;
813;SDS011;389;48.710;9.392;2023-09-18T14:43:52;1.47;;;1.20;;
813;SDS011;389;48.710;9.392;2023-09-18T14:46:18;1.37;;;1.27;;
813;SDS011;389;48.710;9.392;2023-09-18T14:48:45;1.60;;;1.50;;
813;SDS011;389;48.710;9.392;2023-09-18T14:51:11;1.67;;;1.30;;
813;SDS011;389;48.710;9.392;2023-09-18T14:53:37;2.50;;;1.10;;
813;SDS011;389;48.710;9.392;2023-09-18T14:56:02;1.20;;;1.10;;
813;SDS011;389;48.710;9.392;2023-09-18T14:58:29;1.10;;;1.00;;
813;SDS011;389;48.710;9.392;2023-09-18T15:00:55;0.90;;;0.90;;
813;SDS011;389;48.710;9.392;2023-09-18T15:03:22;1.83;;;1.40;;
813;SDS011;389;48.710;9.392;2023-09-18T15:05:50;1.50;;;1.20;;
813;SDS011;389;48.710;9.392;2023-09-18T15:08:17;1.20;;;1.10;;
813;SDS011;389;48.710;9.392;2023-09-18T15:10:44;1.30;;;1.10;;
813;SDS011;389;48.710;9.392;2023-09-18T15:13:10;3.00;;;1.50;;
813;SDS011;389;48.710;9.392;2023-09-18T15:15:36;3.40;;;1.10;;
813;SDS011;389;48.710;9.392;2023-09-18T15:18:02;1.63;;;1.17;;
813;SDS011;389;48.710;9.392;2023-09-18T15:20:28;1.73;;;1.20;;
813;SDS011;389;48.710;9.392;2023-09-18T15:22:53;1.40;;;1.10;;
813;SDS011;389;48.710;9.392;2023-09-18T15:25:21;1.13;;;1.00;;
813;SDS011;389;48.710;9.392;2023-09-18T15:27:47;1.90;;;1.10;;
813;SDS011;389;48.710;9.392;2023-09-18T15:30:12;1.80;;;1.13;;
813;SDS011;389;48.710;9.392;2023-09-18T15:32:47;3.83;;;1.47;;
813;SDS011;389;48.710;9.392;2023-09-18T15:35:21;1.37;;;1.27;;
813;SDS011;389;48.710;9.392;2023-09-18T15:37:48;1.53;;;1.30;;
813;SDS011;389;48.710;9.392;2023-09-18T15:40:18;2.20;;;1.30;;
813;SDS011;389;48.710;9.392;2023-09-18T15:42:45;1.70;;;1.13;;
813;SDS011;389;48.710;9.392;2023-09-18T15:45:12;2.30;;;1.00;;
813;SDS011;389;48.710;9.392;2023-09-18T15:47:38;1.77;;;1.10;;
813;SDS011;389;48.710;9.392;2023-09-18T15:50:05;2.20;;;1.30;;
813;SDS011;389;48.710;9.392;2023-09-18T15:52:31;2.07;;;1.10;;
813;SDS011;389;48.710;9.392;2023-09-18T15:54:57;1.60;;;1.20;;
813;SDS011;389;48.710;9.392;2023-09-18T15:57:28;3.53;;;1.30;;
813;SDS011;389;48.710;9.392;2023-09-18T15:59:54;1.40;;;1.10;;
813;SDS011;389;48.710;9.392;2023-09-18T16:02:20;1.30;;;1.20;;
813;SDS011;389;48.710;9.392;2023-09-18T16:04:48;1.20;;;1.10;;
813;SDS011;389;48.710;9.392;2023-09-18T16:07:14;2.30;;;1.30;;
813;SDS011;389;48.710;9.392;2023-09-18T16:09:39;1.43;;;1.33;;
813;SDS011;389;48.710;9.392;2023-09-18T16:12:06;3.57;;;1.30;;